Time;durP1;ratioP1;P1;durP2;ratioP2;P2;SDS_P1;SDS_P2;PMS_P1;PMS_P2;Temp;Humidity;BMP_temperature;BMP_pressure;BME280_temperature;BME280_humidity;BME280_pressure;Samples;Min_cycle;Max_cycle;Signal;HPM_P1;HPM_P2
2021/10/19 00:00:28;;;;;;;20.05;15.70;;;13.60;99.90;;;;;;5072892;28;20024;-75
2021/10/19 00:02:53;;;;;;;16.67;14.55;;;13.60;99.90;;;;;;5071959;28;20456;-75
2021/10/19 00:05:19;;;;;;;23.90;15.20;;;13.60;99.90;;;;;;5071845;28;20534;-75
2021/10/19 00:07:46;;;;;;;21.67;15.32;;;13.60;99.90;;;;;;5072250;28;20048;-76
2021/10/19 00:10:13;;;;;;;16.67;14.00;;;13.70;99.90;;;;;;5071659;28;20036;-75
2021/10/19 00:12:39;;;;;;;25.00;15.52;;;13.70;99.90;;;;;;5072277;28;20082;-75
2021/10/19 00:15:09;;;;;;;16.92;14.68;;;13.70;99.90;;;;;;5071234;28;20040;-75
2021/10/19 00:17:35;;;;;;;16.95;14.32;;;13.70;99.90;;;;;;5072071;28;20016;-75
2021/10/19 00:20:01;;;;;;;15.75;14.13;;;13.70;99.90;;;;;;5071992;28;20890;-75
2021/10/19 00:22:27;;;;;;;18.30;14.80;;;13.70;99.90;;;;;;5071409;28;20019;-75
2021/10/19 00:24:52;;;;;;;17.63;14.90;;;13.70;99.90;;;;;;5073854;28;20468;-75
2021/10/19 00:27:18;;;;;;;17.27;15.00;;;13.70;99.90;;;;;;5076195;28;20028;-75
2021/10/19 00:29:44;;;;;;;18.98;15.40;;;13.70;99.90;;;;;;5074972;28;20021;-75
2021/10/19 00:32:09;;;;;;;17.15;14.13;;;13.70;99.90;;;;;;5076157;28;20035;-76
2021/10/19 00:34:35;;;;;;;21.50;15.00;;;14.20;99.90;;;;;;5076133;28;20028;-75
2021/10/19 00:37:00;;;;;;;18.23;15.20;;;13.80;99.90;;;;;;5074739;28;20107;-75
2021/10/19 00:39:26;;;;;;;21.92;15.07;;;13.80;99.90;;;;;;5057866;28;20028;-75
2021/10/19 00:41:51;;;;;;;16.70;14.18;;;13.80;99.90;;;;;;5075569;28;20029;-75
2021/10/19 00:44:17;;;;;;;16.05;14.35;;;13.80;99.90;;;;;;5075150;28;20032;-75
2021/10/19 00:46:43;;;;;;;17.23;14.65;;;13.80;99.90;;;;;;5072720;28;20127;-75
2021/10/19 00:49:09;;;;;;;17.65;14.32;;;13.80;99.90;;;;;;5073926;28;20032;-75
2021/10/19 00:51:36;;;;;;;18.15;15.63;;;14.00;99.90;;;;;;5075255;28;20024;-74
2021/10/19 00:54:01;;;;;;;18.73;16.13;;;13.90;99.90;;;;;;5075892;28;20028;-74
2021/10/19 00:56:28;;;;;;;19.90;15.70;;;14.00;99.90;;;;;;5075552;28;20028;-75
2021/10/19 00:58:54;;;;;;;18.92;15.82;;;13.90;99.90;;;;;;5074437;28;20032;-73
2021/10/19 01:01:20;;;;;;;18.83;15.45;;;13.90;99.90;;;;;;5075459;28;20028;-74
2021/10/19 01:03:46;;;;;;;17.88;15.10;;;13.90;99.90;;;;;;5075005;28;20050;-73
2021/10/19 01:06:13;;;;;;;18.42;15.75;;;13.90;99.90;;;;;;5074834;28;20033;-74
2021/10/19 01:08:40;;;;;;;18.92;15.85;;;13.90;99.90;;;;;;5075363;28;20426;-75
2021/10/19 01:11:06;;;;;;;20.85;16.85;;;13.90;99.90;;;;;;5075725;28;20031;-76
2021/10/19 01:13:34;;;;;;;19.33;16.05;;;13.90;99.90;;;;;;5075355;28;20021;-75
2021/10/19 01:16:08;;;;;;;22.17;16.35;;;13.90;99.90;;;;;;5075158;28;20036;-74
2021/10/19 01:18:35;;;;;;;19.92;15.45;;;13.90;99.90;;;;;;5074913;28;20039;-75
2021/10/19 01:21:04;;;;;;;20.02;15.55;;;13.90;99.90;;;;;;5074795;28;20029;-73
2021/10/19 01:23:30;;;;;;;21.08;16.17;;;13.90;99.90;;;;;;5075328;28;20021;-74
2021/10/19 01:25:56;;;;;;;23.35;16.77;;;13.90;99.90;;;;;;5074292;28;20460;-75
2021/10/19 01:28:22;;;;;;;25.13;17.30;;;13.80;99.90;;;;;;5074846;28;20361;-73
2021/10/19 01:30:49;;;;;;;20.27;16.77;;;13.90;99.90;;;;;;5074736;28;20027;-75
2021/10/19 01:33:15;;;;;;;23.73;16.70;;;13.90;99.90;;;;;;5074407;28;20032;-75
2021/10/19 01:35:46;;;;;;;21.48;16.38;;;13.80;99.90;;;;;;5075635;28;20028;-75
2021/10/19 01:38:16;;;;;;;;;;;13.80;99.90;;;;;;5076033;28;20050;-75
2021/10/19 01:40:42;;;;;;;17.98;15.20;;;13.80;99.90;;;;;;5075173;28;19928;-74
2021/10/19 01:43:15;;;;;;;19.80;15.75;;;13.80;99.90;;;;;;5075037;28;20480;-75
2021/10/19 01:45:42;;;;;;;18.70;16.33;;;13.80;99.90;;;;;;5075478;28;20119;-74
2021/10/19 01:48:07;;;;;;;21.73;16.67;;;13.90;99.90;;;;;;5074106;28;20025;-73
2021/10/19 01:50:37;;;;;;;21.33;16.80;;;13.80;99.90;;;;;;5075451;28;20522;-74
2021/10/19 01:53:06;;;;;;;28.00;18.50;;;13.80;99.90;;;;;;5074306;28;20078;-75
2021/10/19 01:55:31;;;;;;;19.05;16.48;;;13.80;99.90;;;;;;5074156;28;20515;-74
2021/10/19 01:57:57;;;;;;;21.10;16.73;;;13.90;99.90;;;;;;5074667;28;20020;-74
2021/10/19 02:00:22;;;;;;;26.70;18.17;;;13.80;99.90;;;;;;5074345;28;20050;-73
2021/10/19 02:02:48;;;;;;;19.42;16.17;;;13.80;99.90;;;;;;5073782;28;20017;-73
2021/10/19 02:05:14;;;;;;;28.75;18.55;;;13.90;99.90;;;;;;5074578;28;20035;-75
2021/10/19 02:07:39;;;;;;;25.58;18.73;;;13.90;99.90;;;;;;5074272;28;20108;-75
2021/10/19 02:10:08;;;;;;;27.00;19.00;;;13.90;99.90;;;;;;5074240;28;20020;-73
2021/10/19 02:12:33;;;;;;;23.15;17.60;;;13.90;99.90;;;;;;5074139;28;20103;-75
2021/10/19 02:14:59;;;;;;;26.15;19.38;;;13.90;99.90;;;;;;5073209;28;20033;-73
2021/10/19 02:17:25;;;;;;;25.13;19.85;;;13.90;99.90;;;;;;5074073;28;20077;-74
2021/10/19 02:19:53;;;;;;;28.23;21.20;;;13.90;99.90;;;;;;5073531;28;20124;-74
2021/10/19 02:22:19;;;;;;;25.55;18.90;;;14.00;99.90;;;;;;5073252;28;20130;-74
2021/10/19 02:24:44;;;;;;;27.85;20.17;;;13.90;99.90;;;;;;5073664;28;20103;-73
2021/10/19 02:27:10;;;;;;;27.25;20.85;;;13.90;99.90;;;;;;5073884;28;20082;-73
2021/10/19 02:29:36;;;;;;;25.65;20.38;;;13.90;99.90;;;;;;5073373;28;20032;-73
2021/10/19 02:32:02;;;;;;;27.20;21.08;;;13.90;99.90;;;;;;5073485;28;20082;-74
2021/10/19 02:34:28;;;;;;;26.40;21.08;;;13.90;99.90;;;;;;5073457;28;20496;-75
2021/10/19 02:36:53;;;;;;;27.17;20.77;;;14.00;99.90;;;;;;5072964;28;20055;-74
2021/10/19 02:39:19;;;;;;;26.27;20.02;;;13.90;99.90;;;;;;5073535;28;20048;-74
2021/10/19 02:41:45;;;;;;;29.95;21.77;;;14.00;99.90;;;;;;5073169;28;20017;-73
2021/10/19 02:44:11;;;;;;;26.00;19.95;;;13.90;99.90;;;;;;5071138;28;20037;-73
2021/10/19 02:46:36;;;;;;;29.95;20.73;;;14.00;99.90;;;;;;5061022;28;20067;-74
2021/10/19 02:49:03;;;;;;;25.23;19.58;;;14.00;99.90;;;;;;5073441;28;20488;-74
2021/10/19 02:51:29;;;;;;;27.55;21.33;;;14.00;99.90;;;;;;5072863;28;20100;-74
2021/10/19 02:53:55;;;;;;;27.27;20.73;;;14.00;99.90;;;;;;5073167;28;20584;-73
2021/10/19 02:56:21;;;;;;;26.80;20.92;;;14.00;99.90;;;;;;5073433;28;20078;-74
2021/10/19 02:58:47;;;;;;;28.02;20.50;;;14.00;99.90;;;;;;5058683;28;20088;-73
2021/10/19 03:01:13;;;;;;;25.25;20.75;;;14.00;99.90;;;;;;5073332;28;20047;-74
2021/10/19 03:03:39;;;;;;;25.88;21.70;;;14.00;99.90;;;;;;5059319;28;20020;-73
2021/10/19 03:06:05;;;;;;;24.30;20.25;;;14.00;99.90;;;;;;5072280;28;20123;-74
2021/10/19 03:08:30;;;;;;;24.02;20.33;;;14.00;99.90;;;;;;5058893;28;20071;-74
2021/10/19 03:10:56;;;;;;;28.45;22.25;;;14.10;99.90;;;;;;5072451;28;20031;-75
2021/10/19 03:13:22;;;;;;;26.15;19.52;;;14.00;99.90;;;;;;5073460;28;20430;-75
2021/10/19 03:15:47;;;;;;;26.85;21.35;;;14.00;99.90;;;;;;5073058;28;20029;-75
2021/10/19 03:18:13;;;;;;;26.55;20.70;;;14.10;99.90;;;;;;5072245;28;20024;-74
2021/10/19 03:20:39;;;;;;;24.05;21.20;;;14.10;99.90;;;;;;5073360;28;20041;-74
2021/10/19 03:23:04;;;;;;;31.73;22.58;;;14.00;99.90;;;;;;5072521;28;20016;-74
2021/10/19 03:25:30;;;;;;;27.75;21.92;;;14.10;99.90;;;;;;5071941;28;20033;-74
2021/10/19 03:27:55;;;;;;;28.30;21.60;;;14.10;99.90;;;;;;5072719;28;20484;-75
2021/10/19 03:30:21;;;;;;;26.35;21.20;;;14.10;99.90;;;;;;5073340;28;20039;-74
2021/10/19 03:32:46;;;;;;;30.10;22.10;;;14.10;99.90;;;;;;5071699;28;20527;-75
2021/10/19 03:35:12;;;;;;;26.80;22.20;;;14.10;99.90;;;;;;5072580;28;20017;-74
2021/10/19 03:37:38;;;;;;;29.83;21.55;;;14.10;99.90;;;;;;5072369;28;20021;-74
2021/10/19 03:40:05;;;;;;;26.75;23.13;;;14.30;99.90;;;;;;5071697;28;20559;-74
2021/10/19 03:42:31;;;;;;;27.48;22.60;;;14.10;99.90;;;;;;5072462;28;20549;-73
2021/10/19 03:44:56;;;;;;;27.92;23.17;;;14.10;99.90;;;;;;5072345;28;20032;-73
2021/10/19 03:47:22;;;;;;;28.05;22.95;;;14.10;99.90;;;;;;5071880;28;20012;-74
2021/10/19 03:49:48;;;;;;;26.80;22.92;;;14.00;99.90;;;;;;5072087;28;20503;-74
2021/10/19 03:52:13;;;;;;;27.45;22.40;;;14.20;99.90;;;;;;5072484;28;20020;-74
2021/10/19 03:54:39;;;;;;;28.33;21.58;;;14.20;99.90;;;;;;5071454;28;20111;-75
2021/10/19 03:57:05;;;;;;;27.15;22.77;;;14.20;99.90;;;;;;5072112;28;20041;-74
2021/10/19 03:59:31;;;;;;;28.73;21.63;;;14.20;99.90;;;;;;5071945;28;20025;-74
2021/10/19 04:01:57;;;;;;;24.73;21.38;;;14.20;99.90;;;;;;5057149;28;20021;-74
2021/10/19 04:04:23;;;;;;;28.23;22.60;;;14.20;99.90;;;;;;5072242;28;20420;-75
2021/10/19 04:06:48;;;;;;;26.80;21.45;;;14.20;99.90;;;;;;5072585;28;20032;-74
2021/10/19 04:09:14;;;;;;;24.88;22.17;;;14.20;99.90;;;;;;5072005;28;20026;-74
2021/10/19 04:11:40;;;;;;;26.05;21.95;;;14.20;99.90;;;;;;5072292;28;20025;-75
2021/10/19 04:14:06;;;;;;;26.90;24.02;;;14.20;99.90;;;;;;5071007;28;20031;-74
2021/10/19 04:16:32;;;;;;;28.58;23.35;;;14.20;99.90;;;;;;5072673;28;20068;-74
2021/10/19 04:18:57;;;;;;;30.02;23.77;;;14.20;99.90;;;;;;5071826;28;20056;-74
2021/10/19 04:21:23;;;;;;;30.55;23.88;;;14.30;99.90;;;;;;5072096;28;20136;-73
2021/10/19 04:23:48;;;;;;;25.05;21.52;;;14.30;99.90;;;;;;5071823;28;20028;-75
2021/10/19 04:26:14;;;;;;;24.23;21.48;;;14.30;99.90;;;;;;5072039;28;20037;-75
2021/10/19 04:28:41;;;;;;;26.55;22.15;;;14.20;99.90;;;;;;5071359;28;20020;-75
2021/10/19 04:31:06;;;;;;;26.73;22.55;;;14.30;99.90;;;;;;5072259;28;20114;-76
2021/10/19 04:33:32;;;;;;;26.42;22.42;;;14.30;99.90;;;;;;5072331;28;20477;-75
2021/10/19 04:35:58;;;;;;;26.17;21.80;;;14.30;99.90;;;;;;5071213;28;20388;-75
2021/10/19 04:38:24;;;;;;;25.40;21.45;;;14.30;99.90;;;;;;5072426;28;20028;-76
2021/10/19 04:40:49;;;;;;;23.83;21.13;;;14.20;99.90;;;;;;5071626;28;20392;-75
2021/10/19 04:43:16;;;;;;;22.05;19.77;;;14.30;99.90;;;;;;5071010;28;20040;-75
2021/10/19 04:45:42;;;;;;;23.90;21.25;;;14.30;99.90;;;;;;5071581;28;20036;-73
2021/10/19 04:48:07;;;;;;;21.75;19.55;;;14.30;99.90;;;;;;5071932;28;20025;-75
2021/10/19 04:50:34;;;;;;;23.05;20.02;;;14.30;99.90;;;;;;5071622;28;20027;-74
2021/10/19 04:53:01;;;;;;;22.10;19.63;;;14.30;99.90;;;;;;5072015;28;20020;-74
2021/10/19 04:55:27;;;;;;;19.80;17.83;;;14.30;99.90;;;;;;5071653;28;20051;-74
2021/10/19 04:57:53;;;;;;;22.15;19.88;;;14.30;99.90;;;;;;5070788;28;20024;-74
2021/10/19 05:00:18;;;;;;;24.98;20.55;;;14.30;99.90;;;;;;5071628;28;20380;-74
2021/10/19 05:02:48;;;;;;;22.42;20.10;;;14.30;99.90;;;;;;5071336;28;20028;-75
2021/10/19 05:05:15;;;;;;;26.30;21.50;;;14.40;99.90;;;;;;5070877;28;20037;-73
2021/10/19 05:07:40;;;;;;;23.20;18.70;;;14.40;99.90;;;;;;5071835;28;20039;-73
2021/10/19 05:10:06;;;;;;;20.75;18.55;;;14.40;99.90;;;;;;5072148;28;20025;-73
2021/10/19 05:12:31;;;;;;;22.75;20.08;;;14.30;99.90;;;;;;5074631;28;20027;-74
2021/10/19 05:14:59;;;;;;;22.17;19.98;;;14.40;99.90;;;;;;5074892;28;20047;-74
2021/10/19 05:17:24;;;;;;;23.33;20.45;;;14.40;99.90;;;;;;5069146;28;20035;-74
2021/10/19 05:19:50;;;;;;;24.80;20.67;;;14.40;99.90;;;;;;5066670;28;20032;-73
2021/10/19 05:22:16;;;;;;;24.55;21.83;;;14.40;99.90;;;;;;5075122;28;20029;-75
2021/10/19 05:24:42;;;;;;;26.45;21.42;;;14.40;99.90;;;;;;5074304;28;20037;-74
2021/10/19 05:27:08;;;;;;;24.25;21.08;;;14.40;99.90;;;;;;5075363;28;20550;-73
2021/10/19 05:29:33;;;;;;;27.02;23.05;;;14.40;99.90;;;;;;5075658;28;20056;-74
2021/10/19 05:31:59;;;;;;;26.45;22.58;;;14.40;99.90;;;;;;5074065;28;20029;-74
2021/10/19 05:34:25;;;;;;;27.17;23.88;;;14.50;99.90;;;;;;5060767;28;20028;-74
2021/10/19 05:36:50;;;;;;;28.23;24.08;;;14.50;99.90;;;;;;5074919;28;20115;-75
2021/10/19 05:39:17;;;;;;;28.83;23.63;;;14.50;99.90;;;;;;5074299;28;20525;-75
2021/10/19 05:41:43;;;;;;;30.63;24.10;;;14.50;99.90;;;;;;5074518;28;20043;-75
2021/10/19 05:44:09;;;;;;;29.02;24.77;;;14.50;99.90;;;;;;5075110;28;20535;-75
2021/10/19 05:46:35;;;;;;;32.20;24.83;;;14.50;99.90;;;;;;5074121;28;20123;-73
2021/10/19 05:49:00;;;;;;;28.48;24.30;;;14.50;99.90;;;;;;5074932;28;20028;-76
2021/10/19 05:51:26;;;;;;;26.73;23.15;;;14.50;99.90;;;;;;5074773;28;20020;-76
2021/10/19 05:53:51;;;;;;;32.20;24.98;;;14.50;99.90;;;;;;5069076;28;20028;-75
2021/10/19 05:56:17;;;;;;;32.45;25.25;;;14.50;99.90;;;;;;5072513;28;20016;-75
2021/10/19 05:58:45;;;;;;;32.30;25.85;;;14.50;99.90;;;;;;5071590;28;20040;-75
2021/10/19 06:01:14;;;;;;;40.28;28.05;;;14.50;99.90;;;;;;5069435;28;20051;-75
2021/10/19 06:03:39;;;;;;;38.45;27.80;;;14.50;99.90;;;;;;5072397;28;20029;-76
2021/10/19 06:06:11;;;;;;;40.55;29.13;;;14.60;99.90;;;;;;5072700;28;20043;-76
2021/10/19 06:08:37;;;;;;;40.92;28.55;;;14.60;99.90;;;;;;5072450;28;20013;-75
2021/10/19 06:11:02;;;;;;;35.33;28.40;;;14.70;99.90;;;;;;5072676;28;20423;-76
2021/10/19 06:13:28;;;;;;;39.28;28.98;;;14.60;99.90;;;;;;5072710;28;20025;-75
2021/10/19 06:15:54;;;;;;;39.88;28.83;;;14.70;99.90;;;;;;5071675;28;20493;-75
2021/10/19 06:18:20;;;;;;;40.35;29.85;;;14.70;99.90;;;;;;5072629;28;20516;-75
2021/10/19 06:20:48;;;;;;;34.22;28.00;;;14.60;99.90;;;;;;5071461;28;20120;-75
2021/10/19 06:23:14;;;;;;;39.50;28.60;;;14.60;99.90;;;;;;5072047;28;20031;-75
2021/10/19 06:25:39;;;;;;;39.53;27.55;;;14.70;99.90;;;;;;5071226;28;20384;-76
2021/10/19 06:28:05;;;;;;;38.85;28.67;;;14.70;99.90;;;;;;5071707;28;20021;-75
2021/10/19 06:30:30;;;;;;;38.35;28.85;;;14.70;99.90;;;;;;5071393;28;20020;-75
2021/10/19 06:32:56;;;;;;;39.92;28.77;;;14.70;99.90;;;;;;5072618;28;20086;-74
2021/10/19 06:35:21;;;;;;;45.40;28.58;;;14.70;99.90;;;;;;5072125;28;20461;-74
2021/10/19 06:37:47;;;;;;;40.25;28.70;;;14.80;99.90;;;;;;5072257;28;20044;-74
2021/10/19 06:40:12;;;;;;;42.67;29.15;;;14.70;99.90;;;;;;5072262;28;20023;-74
2021/10/19 06:42:38;;;;;;;42.42;28.27;;;14.80;99.90;;;;;;5071205;28;20044;-75
2021/10/19 06:45:05;;;;;;;44.78;28.95;;;14.80;99.90;;;;;;5071748;28;20028;-75
2021/10/19 06:47:31;;;;;;;43.40;29.35;;;14.80;99.90;;;;;;5072239;28;20082;-74
2021/10/19 06:49:57;;;;;;;40.40;27.92;;;14.80;99.90;;;;;;5071531;28;20020;-75
2021/10/19 06:52:23;;;;;;;41.63;29.13;;;14.80;99.90;;;;;;5072004;28;20537;-75
2021/10/19 06:54:49;;;;;;;39.70;28.88;;;14.90;99.90;;;;;;5071524;28;20029;-75
2021/10/19 06:57:14;;;;;;;37.60;26.40;;;14.90;99.90;;;;;;5071690;28;20066;-75
2021/10/19 06:59:46;;;;;;;43.83;29.33;;;14.90;99.90;;;;;;5072116;28;20025;-75
2021/10/19 07:02:12;;;;;;;49.22;31.17;;;14.90;99.90;;;;;;5071871;28;20477;-75
2021/10/19 07:04:37;;;;;;;49.08;31.40;;;14.90;99.90;;;;;;5071725;28;20037;-75
2021/10/19 07:07:03;;;;;;;43.75;29.42;;;15.00;99.90;;;;;;5071844;28;20021;-75
2021/10/19 07:09:28;;;;;;;44.72;28.58;;;15.00;99.90;;;;;;5071097;28;20535;-77
2021/10/19 07:11:55;;;;;;;48.90;31.50;;;15.00;99.90;;;;;;5070220;28;20017;-77
2021/10/19 07:14:21;;;;;;;40.17;27.45;;;15.00;99.90;;;;;;5071310;28;20028;-76
2021/10/19 07:16:47;;;;;;;45.13;29.90;;;15.10;99.90;;;;;;5070177;28;20020;-76
2021/10/19 07:19:12;;;;;;;42.33;28.45;;;15.10;99.90;;;;;;5070859;28;20016;-76
2021/10/19 07:21:38;;;;;;;41.08;26.63;;;15.10;99.90;;;;;;5072379;28;20020;-78
2021/10/19 07:24:05;;;;;;;40.75;27.63;;;15.10;99.90;;;;;;5071282;28;20101;-78
2021/10/19 07:26:31;;;;;;;42.97;28.85;;;15.00;99.90;;;;;;5071194;28;20037;-78
2021/10/19 07:28:57;;;;;;;35.08;26.88;;;15.20;99.90;;;;;;5071433;28;20087;-76
2021/10/19 07:31:22;;;;;;;46.55;28.17;;;15.20;99.90;;;;;;5071580;28;20028;-77
2021/10/19 07:33:48;;;;;;;40.30;27.90;;;15.20;99.90;;;;;;5072466;28;20016;-76
2021/10/19 07:36:13;;;;;;;37.35;27.52;;;15.20;99.90;;;;;;5072783;28;20029;-75
2021/10/19 07:38:39;;;;;;;45.17;27.55;;;15.30;99.90;;;;;;5071946;28;20020;-77
2021/10/19 07:41:05;;;;;;;43.35;28.95;;;15.30;99.90;;;;;;5072617;28;20447;-77
2021/10/19 07:43:30;;;;;;;35.00;25.45;;;15.40;99.90;;;;;;5072809;28;20400;-77
2021/10/19 07:45:56;;;;;;;31.67;24.85;;;15.40;99.90;;;;;;5071804;28;20058;-78
2021/10/19 07:48:24;;;;;;;32.03;24.92;;;15.50;99.90;;;;;;5072848;28;20483;-76
2021/10/19 07:50:53;;;;;;;34.17;25.17;;;15.50;99.90;;;;;;5072431;28;20020;-77
2021/10/19 07:53:18;;;;;;;31.13;24.38;;;15.50;99.90;;;;;;5072041;28;20034;-77
2021/10/19 07:55:44;;;;;;;31.10;24.23;;;15.50;99.90;;;;;;5072044;28;20103;-75
2021/10/19 07:58:10;;;;;;;35.22;25.00;;;15.60;99.90;;;;;;5072366;28;20032;-77
2021/10/19 08:00:35;;;;;;;29.70;22.95;;;15.60;99.90;;;;;;5071958;28;20066;-75
2021/10/19 08:03:02;;;;;;;28.55;21.92;;;15.70;99.90;;;;;;5071998;28;20048;-78
2021/10/19 08:05:29;;;;;;;25.88;21.23;;;15.70;99.90;;;;;;5071234;28;20036;-79
2021/10/19 08:08:12;;;;;;;28.83;22.33;;;15.70;99.90;;;;;;5069452;28;20024;-79
2021/10/19 08:10:40;;;;;;;26.58;20.48;;;15.70;99.90;;;;;;5072250;28;20063;-79
2021/10/19 08:13:06;;;;;;;24.75;20.17;;;15.70;99.90;;;;;;5068145;28;20481;-79
2021/10/19 08:15:32;;;;;;;22.67;19.15;;;15.70;99.90;;;;;;5072889;28;20060;-83
2021/10/19 08:17:58;;;;;;;26.48;20.73;;;15.70;99.90;;;;;;5072735;28;20024;-79
2021/10/19 08:20:24;;;;;;;21.80;19.23;;;15.80;99.90;;;;;;5072392;28;20021;-80
2021/10/19 08:22:49;;;;;;;21.80;19.58;;;15.90;99.90;;;;;;5072775;28;20028;-77
2021/10/19 08:25:16;;;;;;;27.17;20.45;;;15.80;99.90;;;;;;5062695;28;20042;-78
2021/10/19 08:27:44;;;;;;;20.50;18.30;;;15.90;99.90;;;;;;5061445;28;20016;-77
2021/10/19 08:30:12;;;;;;;24.05;19.70;;;15.90;99.90;;;;;;5072122;28;20105;-77
2021/10/19 08:32:37;;;;;;;21.50;19.23;;;15.90;99.90;;;;;;5072620;28;20027;-76
2021/10/19 08:35:04;;;;;;;22.17;18.40;;;15.90;99.90;;;;;;5067528;28;20025;-79
2021/10/19 08:37:29;;;;;;;21.35;19.13;;;15.90;99.90;;;;;;5066978;28;20059;-79
2021/10/19 08:39:55;;;;;;;21.23;18.58;;;15.90;99.90;;;;;;5065608;28;20075;-76
2021/10/19 08:42:21;;;;;;;18.52;16.63;;;15.90;99.90;;;;;;5062134;28;20491;-77
2021/10/19 08:44:46;;;;;;;19.38;17.38;;;15.90;99.90;;;;;;5080632;28;20036;-76
2021/10/19 08:47:13;;;;;;;19.20;17.15;;;15.90;99.90;;;;;;5083029;28;20017;-77
2021/10/19 08:49:40;;;;;;;20.27;18.17;;;15.90;99.90;;;;;;5084945;28;20073;-76
2021/10/19 08:52:05;;;;;;;19.70;17.33;;;15.90;99.90;;;;;;5080682;28;20056;-76
2021/10/19 08:54:31;;;;;;;18.60;16.75;;;15.90;99.90;;;;;;5076205;28;20013;-78
2021/10/19 08:56:56;;;;;;;22.58;17.50;;;15.90;99.90;;;;;;5084459;28;20104;-76
2021/10/19 08:59:24;;;;;;;23.83;19.25;;;16.00;99.90;;;;;;5079932;28;20024;-77
2021/10/19 09:01:56;;;;;;;23.80;18.80;;;16.00;99.90;;;;;;5084194;28;20016;-78
2021/10/19 09:04:27;;;;;;;24.88;20.15;;;16.00;99.90;;;;;;5077747;28;20032;-78
2021/10/19 09:06:53;;;;;;;26.15;20.70;;;16.00;99.90;;;;;;5078302;28;20081;-77
2021/10/19 09:09:24;;;;;;;21.67;18.13;;;16.00;99.90;;;;;;5075427;28;20427;-77
2021/10/19 09:11:52;;;;;;;28.48;20.52;;;16.10;99.90;;;;;;5086554;28;20111;-79
2021/10/19 09:14:19;;;;;;;26.65;20.50;;;16.10;99.90;;;;;;5081061;28;20039;-78
2021/10/19 09:16:47;;;;;;;29.35;20.33;;;16.10;99.90;;;;;;5078608;28;20495;-75
2021/10/19 09:19:18;;;;;;;31.52;22.48;;;16.20;99.90;;;;;;5078993;28;20029;-80
2021/10/19 09:21:46;;;;;;;28.98;22.30;;;16.20;99.90;;;;;;5070666;28;20028;-80
2021/10/19 09:24:14;;;;;;;28.88;22.52;;;16.20;99.90;;;;;;5083899;28;20491;-79
2021/10/19 09:27:00;;;;;;;34.17;21.88;;;16.20;99.90;;;;;;5082535;28;20048;-80
2021/10/19 09:29:29;;;;;;;33.42;21.42;;;16.30;99.90;;;;;;5078620;28;20028;-79
2021/10/19 09:31:58;;;;;;;25.75;20.10;;;16.30;99.90;;;;;;5074973;28;20073;-78
2021/10/19 09:34:28;;;;;;;32.47;20.80;;;16.30;99.90;;;;;;5071665;28;20016;-78
2021/10/19 09:36:54;;;;;;;26.40;20.53;;;16.40;99.90;;;;;;5072798;28;20073;-80
2021/10/19 09:39:36;;;;;;;31.73;21.35;;;16.40;99.90;;;;;;5072098;28;20709;-80
2021/10/19 09:42:04;;;;;;;28.90;20.67;;;16.50;99.90;;;;;;5074233;28;20056;-79
2021/10/19 09:44:29;;;;;;;30.15;20.50;;;16.40;99.90;;;;;;5077415;28;20020;-79
2021/10/19 09:46:55;;;;;;;28.38;20.20;;;16.50;99.90;;;;;;5073570;28;20028;-78
2021/10/19 09:49:26;;;;;;;31.75;20.92;;;16.50;99.90;;;;;;5072025;28;20019;-80
2021/10/19 09:51:52;;;;;;;26.77;19.52;;;16.50;99.90;;;;;;5070996;28;20021;-77
2021/10/19 09:54:20;;;;;;;27.40;20.30;;;16.60;99.90;;;;;;5072184;28;20507;-80
2021/10/19 09:56:47;;;;;;;28.88;19.92;;;16.60;99.90;;;;;;5070964;28;20028;-78
2021/10/19 09:59:15;;;;;;;26.42;19.42;;;16.70;99.90;;;;;;5077718;28;20387;-78
2021/10/19 10:01:43;;;;;;;27.92;19.00;;;16.80;99.90;;;;;;5081501;28;20472;-78
2021/10/19 10:04:09;;;;;;;30.17;19.67;;;16.70;99.90;;;;;;5081208;28;20060;-79
2021/10/19 10:06:36;;;;;;;24.80;18.77;;;16.80;99.90;;;;;;5077744;28;20477;-78
2021/10/19 10:09:04;;;;;;;26.73;18.83;;;16.80;99.90;;;;;;5073508;28;20036;-78
2021/10/19 10:11:29;;;;;;;28.30;18.83;;;16.80;99.90;;;;;;5084458;28;20048;-78
2021/10/19 10:14:04;;;;;;;25.73;19.67;;;16.80;99.90;;;;;;5075422;28;20079;-78
2021/10/19 10:16:40;;;;;;;33.08;19.73;;;16.90;99.90;;;;;;5085036;28;20055;-77
2021/10/19 10:19:14;;;;;;;27.48;18.63;;;17.00;99.90;;;;;;5076586;28;20035;-78
2021/10/19 10:21:48;;;;;;;28.75;19.00;;;17.00;99.90;;;;;;5080062;28;20028;-71
2021/10/19 10:24:25;;;;;;;25.55;18.60;;;17.10;99.90;;;;;;5084971;28;20032;-79
2021/10/19 10:27:02;;;;;;;26.67;18.80;;;17.20;99.90;;;;;;5080549;28;20028;-78
2021/10/19 10:29:40;;;;;;;29.92;19.25;;;17.10;99.90;;;;;;5078229;28;20016;-79
2021/10/19 10:32:06;;;;;;;25.88;18.77;;;17.20;99.90;;;;;;5078732;28;20107;-77
2021/10/19 10:34:34;;;;;;;26.13;18.33;;;17.10;99.90;;;;;;5071318;28;20097;-79
2021/10/19 10:37:11;;;;;;;24.58;18.45;;;17.20;99.90;;;;;;5083511;28;20051;-79
2021/10/19 10:39:47;;;;;;;27.20;19.75;;;17.20;99.90;;;;;;5072837;28;20031;-80
2021/10/19 10:42:15;;;;;;;26.75;18.35;;;17.20;99.90;;;;;;5071375;28;20059;-78
2021/10/19 10:44:42;;;;;;;27.15;18.63;;;17.20;99.90;;;;;;5076635;28;20021;-78
2021/10/19 10:47:09;;;;;;;24.38;18.58;;;17.20;99.90;;;;;;5073995;28;20115;-79
2021/10/19 10:49:36;;;;;;;25.95;18.42;;;17.20;99.90;;;;;;5072595;28;20472;-78
2021/10/19 10:52:13;;;;;;;25.67;18.58;;;17.20;99.90;;;;;;5076671;28;20489;-77
2021/10/19 10:54:48;;;;;;;22.25;18.15;;;17.30;99.90;;;;;;5080247;28;20530;-78
2021/10/19 10:57:14;;;;;;;24.45;17.25;;;17.30;99.90;;;;;;5079675;28;20496;-78
2021/10/19 10:59:40;;;;;;;22.70;17.42;;;17.40;99.90;;;;;;5072715;28;20028;-80
2021/10/19 11:02:10;;;;;;;21.40;16.60;;;17.50;99.90;;;;;;5074899;28;20065;-77
2021/10/19 11:04:47;;;;;;;18.25;15.43;;;17.40;99.90;;;;;;5072009;28;20047;-78
2021/10/19 11:07:22;;;;;;;17.88;14.73;;;17.50;99.90;;;;;;5074480;28;20070;-78
2021/10/19 11:09:48;;;;;;;20.83;16.75;;;17.40;99.90;;;;;;5072107;28;20131;-79
2021/10/19 11:12:19;;;;;;;18.25;14.98;;;17.50;99.90;;;;;;5081749;28;20054;-77
2021/10/19 11:14:45;;;;;;;22.05;15.60;;;17.60;99.90;;;;;;5075331;28;20052;-78
2021/10/19 11:17:10;;;;;;;21.48;14.98;;;17.60;99.90;;;;;;5077247;28;20055;-79
2021/10/19 11:19:37;;;;;;;18.98;15.90;;;17.70;99.90;;;;;;5080124;28;20058;-78
2021/10/19 11:22:08;;;;;;;17.15;15.35;;;17.60;99.90;;;;;;5085727;28;20074;-78
2021/10/19 11:24:35;;;;;;;18.15;14.95;;;17.70;99.90;;;;;;5073090;28;20029;-78
2021/10/19 11:27:02;;;;;;;19.30;14.65;;;17.70;99.90;;;;;;5085198;28;20032;-77
2021/10/19 11:29:30;;;;;;;16.23;14.45;;;17.70;99.90;;;;;;5077011;28;20295;-77
2021/10/19 11:31:56;;;;;;;19.58;14.50;;;17.70;99.90;;;;;;5069540;28;20040;-78
2021/10/19 11:34:22;;;;;;;16.38;13.50;;;17.70;99.90;;;;;;5056899;28;20523;-77
2021/10/19 11:36:47;;;;;;;16.50;12.95;;;17.70;99.90;;;;;;5070876;28;20025;-78
2021/10/19 11:39:16;;;;;;;1999.90;384.20;;;17.70;99.90;;;;;;5078609;28;20051;-77
2021/10/19 11:41:56;;;;;;;960.40;86.40;;;17.70;99.90;;;;;;5078517;28;20036;-77
2021/10/19 11:44:22;;;;;;;18.15;13.57;;;17.70;99.90;;;;;;5090945;28;20035;-78
2021/10/19 11:46:48;;;;;;;22.25;15.13;;;17.70;99.90;;;;;;5094708;28;20377;-78
2021/10/19 11:49:18;;;;;;;28.02;15.52;;;17.70;99.90;;;;;;5095716;28;20020;-78
2021/10/19 11:51:49;;;;;;;20.30;16.48;;;17.60;99.90;;;;;;5105302;28;20051;-76
2021/10/19 11:54:16;;;;;;;24.23;16.25;;;17.70;99.90;;;;;;5101035;28;20476;-78
2021/10/19 11:57:02;;;;;;;20.17;16.10;;;17.80;99.90;;;;;;5096944;28;20082;-78
2021/10/19 11:59:38;;;;;;;18.77;15.90;;;17.80;99.90;;;;;;5095564;28;20024;-77
2021/10/19 12:02:10;;;;;;;19.45;15.45;;;17.80;99.90;;;;;;5094068;28;20036;-76
2021/10/19 12:04:41;;;;;;;26.75;16.92;;;17.80;99.90;;;;;;5092249;28;20024;-78
2021/10/19 12:07:06;;;;;;;20.65;15.80;;;17.80;99.90;;;;;;5096145;28;20376;-78
2021/10/19 12:09:36;;;;;;;21.27;16.33;;;17.80;99.90;;;;;;5103201;28;20027;-77
2021/10/19 12:12:02;;;;;;;21.08;16.00;;;17.70;99.90;;;;;;5098387;28;20026;-79
2021/10/19 12:14:35;;;;;;;21.65;15.95;;;17.80;99.90;;;;;;5092732;28;20031;-78
2021/10/19 12:17:04;;;;;;;25.60;15.63;;;17.90;99.90;;;;;;5091191;28;20069;-78
2021/10/19 12:19:30;;;;;;;25.52;16.33;;;17.90;99.90;;;;;;5088296;28;20468;-77
2021/10/19 12:22:03;;;;;;;19.70;15.20;;;17.90;99.90;;;;;;5094628;28;20609;-77
2021/10/19 12:24:29;;;;;;;22.33;15.15;;;18.00;99.90;;;;;;5090796;28;20430;-78
2021/10/19 12:27:03;;;;;;;21.15;15.75;;;18.10;99.90;;;;;;5093498;28;20040;-79